SKBG/BGA METAR and TAF weather

Enter ICAO airport designator
Station Type Date Time Source
SKBG METAR 2020/04/10 18:00 UTC NOAA

SKBG 101800Z 32006KT 9999 BKN015 28/22 A2996


Station Type Date Time Source
SKBG Decoded METAR 2020/04/10 18:00 UTC NOAA

Bucaramanga / Palonegro, Colombia (SKBG) 07-06N 073-12W
Apr 10, 2020 - 02:00 PM EDT / 2020.04.10 1800 UTC
Wind: from the NW (320 degrees) at 7 MPH (6 KT):0
Visibility: greater than 7 mile(s):0
Sky conditions: mostly cloudy
Temperature: 82 F (28 C)
Dew Point: 71 F (22 C)
Relative Humidity: 69%
Pressure (altimeter): 29.96 in. Hg (1014 hPa)
ob: SKBG 101800Z 32006KT 9999 BKN015 28/22 A2996
cycle: 18

Station Type Date Time Source
SKBG TAF 2020/04/10 18:39 UTC NOAA

TAF TAF SKBG 101630Z 1018/1118 32008KT 9999 SCT015 SCT090
TEMPO 1019/1123 6000 RA SCT012CB
BECMG 1100/1102 VRB02KT
TEMPO 1109/1112 7000 VCFG SCT010 TX28/1018Z TN19/1111Z

Example: see airport list